Time;durP1;ratioP1;P1;durP2;ratioP2;P2;SDS_P1;SDS_P2;PMS_P1;PMS_P2;Temp;Humidity;BMP_temperature;BMP_pressure;BME280_temperature;BME280_humidity;BME280_pressure;Samples;Min_cycle;Max_cycle;Signal;HPM_P1;HPM_P2
2021/07/28 00:00:06;;;;;;;12.13;9.32;;;;;;;18.36;100.00;95662.25;1023510;28;20027;-66
2021/07/28 00:00:36;;;;;;;12.38;9.38;;;;;;;18.42;100.00;95670.84;1024268;28;20024;-66
2021/07/28 00:01:07;;;;;;;13.60;10.20;;;;;;;18.40;100.00;95662.41;1030577;28;20567;-66
2021/07/28 00:01:37;;;;;;;15.48;11.35;;;;;;;18.40;100.00;95663.19;1030431;28;20081;-66
2021/07/28 00:02:07;;;;;;;14.18;10.82;;;;;;;18.38;100.00;95670.69;1032287;28;20030;-65
2021/07/28 00:02:41;;;;;;;14.43;11.07;;;;;;;18.37;100.00;95669.13;1034734;28;20021;-65
2021/07/28 00:03:12;;;;;;;15.30;10.63;;;;;;;18.36;100.00;95665.69;1030630;28;20032;-65
2021/07/28 00:03:42;;;;;;;14.02;11.15;;;;;;;18.36;100.00;95671.00;1025861;28;20033;-65
2021/07/28 00:04:13;;;;;;;14.75;11.18;;;;;;;18.35;100.00;95668.66;1026650;28;20050;-65
2021/07/28 00:04:43;;;;;;;12.57;10.00;;;;;;;18.31;100.00;95665.84;1026885;28;20085;-65
2021/07/28 00:05:13;;;;;;;14.88;11.13;;;;;;;18.35;100.00;95674.75;1026348;28;20034;-63
2021/07/28 00:05:44;;;;;;;13.48;10.50;;;;;;;18.35;100.00;95676.63;1026501;28;20034;-65
2021/07/28 00:06:19;;;;;;;15.38;10.95;;;;;;;18.32;100.00;95671.94;1022668;29;20398;-65
2021/07/28 00:06:49;;;;;;;15.32;10.85;;;;;;;18.33;100.00;95676.94;1023761;28;20091;-64
2021/07/28 00:07:20;;;;;;;14.32;10.57;;;;;;;18.31;100.00;95671.16;1026912;28;20026;-65
2021/07/28 00:07:50;;;;;;;12.63;10.65;;;;;;;18.31;100.00;95678.38;1022435;28;20031;-65
2021/07/28 00:08:21;;;;;;;12.77;10.75;;;;;;;18.30;100.00;95674.13;1026569;28;20034;-64
2021/07/28 00:08:51;;;;;;;14.65;12.25;;;;;;;18.25;100.00;95671.63;1026318;28;20894;-65
2021/07/28 00:09:22;;;;;;;18.48;12.05;;;;;;;18.28;100.00;95673.69;1026683;28;20029;-65
2021/07/28 00:09:52;;;;;;;16.08;11.75;;;;;;;18.25;100.00;95668.97;1018570;29;20027;-65
2021/07/28 00:10:23;;;;;;;19.50;13.05;;;;;;;18.29;100.00;95669.91;1019013;28;20063;-65
2021/07/28 00:10:53;;;;;;;18.45;12.98;;;;;;;18.27;100.00;95669.44;1022602;28;20098;-65
2021/07/28 00:11:23;;;;;;;17.23;11.80;;;;;;;18.27;100.00;95677.41;1030665;28;20050;-65
2021/07/28 00:11:54;;;;;;;15.65;11.35;;;;;;;18.23;100.00;95671.94;1033617;28;20032;-65
2021/07/28 00:12:24;;;;;;;17.10;11.55;;;;;;;18.20;100.00;95658.50;1034075;28;20029;-65
2021/07/28 00:12:55;;;;;;;18.38;13.10;;;;;;;18.25;100.00;95666.31;1022440;28;20031;-65
2021/07/28 00:13:26;;;;;;;13.40;10.90;;;;;;;18.26;100.00;95671.31;1022718;28;20055;-65
2021/07/28 00:13:56;;;;;;;15.15;11.13;;;;;;;18.26;100.00;95668.66;1026115;28;20102;-66
2021/07/28 00:14:27;;;;;;;15.38;11.15;;;;;;;18.20;100.00;95663.81;1026684;28;20023;-65
2021/07/28 00:14:57;;;;;;;15.02;12.20;;;;;;;18.25;100.00;95671.63;1030581;28;20053;-65
2021/07/28 00:15:28;;;;;;;14.45;11.00;;;;;;;18.23;100.00;95666.63;1030491;28;20026;-65
2021/07/28 00:15:58;;;;;;;14.05;10.82;;;;;;;18.25;100.00;95667.09;1026448;28;20019;-65
2021/07/28 00:16:29;;;;;;;14.45;12.10;;;;;;;18.25;100.00;95666.31;1026657;28;20800;-63
2021/07/28 00:17:00;;;;;;;12.93;10.90;;;;;;;18.22;100.00;95662.41;1026798;28;20030;-65
2021/07/28 00:17:31;;;;;;;11.27;10.07;;;;;;;18.24;100.00;95670.06;1029175;28;20054;-64
2021/07/28 00:18:12;;;;;;;14.23;10.77;;;;;;;18.16;100.00;95657.56;1030553;28;20630;-64
2021/07/28 00:19:02;;;;;;;11.80;8.98;;;;;;;18.20;100.00;95663.81;1034764;28;20429;-65
2021/07/28 00:19:47;;;;;;;11.02;9.85;;;;;;;18.20;100.00;95669.91;1038415;28;20702;-65
2021/07/28 00:23:28;;;;;;;13.25;9.23;;;;;;;18.16;100.00;95665.53;1026407;28;20018;-64
2021/07/28 00:23:59;;;;;;;11.02;9.30;;;;;;;18.16;100.00;95668.19;1028946;28;20090;-65
2021/07/28 00:24:32;;;;;;;15.68;10.95;;;;;;;18.14;100.00;95669.28;1026285;28;20531;-64
2021/07/28 00:25:06;;;;;;;12.85;9.10;;;;;;;18.13;100.00;95665.06;1025859;28;20062;-65
2021/07/28 00:25:36;;;;;;;9.63;8.38;;;;;;;18.08;100.00;95654.59;1030206;28;20760;-65
2021/07/28 00:26:07;;;;;;;13.02;10.25;;;;;;;18.13;100.00;95666.94;1023262;28;20063;-66
2021/07/28 00:26:38;;;;;;;11.60;8.57;;;;;;;18.13;100.00;95669.59;1025596;28;20035;-65
2021/07/28 00:27:08;;;;;;;10.15;8.77;;;;;;;18.13;100.00;95667.72;1022538;29;20042;-65
2021/07/28 00:27:38;;;;;;;13.55;8.65;;;;;;;18.07;100.00;95661.00;1020534;28;20031;-66
2021/07/28 00:28:09;;;;;;;10.55;8.73;;;;;;;18.12;100.00;95668.03;1014337;29;20035;-64
2021/07/28 00:28:39;;;;;;;11.73;9.30;;;;;;;18.12;100.00;95657.41;1014638;29;20040;-66
2021/07/28 00:29:10;;;;;;;12.00;9.48;;;;;;;18.11;100.00;95661.94;1014411;29;20039;-65
2021/07/28 00:29:40;;;;;;;11.98;8.85;;;;;;;18.10;100.00;95664.91;1022716;28;20042;-65
2021/07/28 00:30:11;;;;;;;11.95;9.55;;;;;;;18.05;100.00;95657.88;1030310;28;20484;-63
2021/07/28 00:30:42;;;;;;;11.35;8.30;;;;;;;18.10;100.00;95665.69;1030427;28;20038;-65
2021/07/28 00:31:12;;;;;;;10.18;7.72;;;;;;;18.10;100.00;95659.59;1028815;28;20022;-65
2021/07/28 00:31:42;;;;;;;11.27;8.73;;;;;;;18.13;100.00;95659.75;1029324;28;20508;-63
2021/07/28 00:32:13;;;;;;;10.98;8.50;;;;;;;18.09;100.00;95658.81;1026351;28;20042;-62
2021/07/28 00:32:43;;;;;;;15.95;8.60;;;;;;;18.13;100.00;95662.41;1026402;28;20480;-65
2021/07/28 00:33:14;;;;;;;16.75;9.68;;;;;;;18.08;100.00;95656.47;1022435;29;20576;-65
2021/07/28 00:33:44;;;;;;;10.50;9.00;;;;;;;18.13;100.00;95653.66;1019386;29;20028;-65
2021/07/28 00:34:15;;;;;;;12.32;8.90;;;;;;;18.12;100.00;95660.84;1018699;29;20040;-65
2021/07/28 00:34:45;;;;;;;12.48;9.65;;;;;;;18.12;100.00;95658.19;1022548;28;20398;-66
2021/07/28 00:35:16;;;;;;;9.93;8.50;;;;;;;18.14;100.00;95663.19;1022217;28;20043;-65
2021/07/28 00:35:48;;;;;;;14.68;9.18;;;;;;;18.14;100.00;95661.31;1026510;28;20023;-65
2021/07/28 00:36:18;;;;;;;12.48;9.60;;;;;;;18.14;100.00;95661.31;1026542;28;20035;-66
2021/07/28 00:36:49;;;;;;;17.42;9.93;;;;;;;18.07;100.00;95655.69;1022541;28;20035;-64
2021/07/28 00:37:19;;;;;;;13.48;9.77;;;;;;;18.14;100.00;95665.84;1022841;28;20687;-66
2021/07/28 00:37:50;;;;;;;19.08;10.02;;;;;;;18.16;100.00;95673.50;1026490;28;20042;-66
2021/07/28 00:38:20;;;;;;;14.05;10.02;;;;;;;18.14;100.00;95668.50;1022527;28;20031;-66
2021/07/28 00:38:51;;;;;;;11.95;8.20;;;;;;;18.11;100.00;95664.59;1028592;28;20579;-65
2021/07/28 00:39:21;;;;;;;14.52;9.43;;;;;;;18.14;100.00;95671.16;1022587;29;20382;-66
2021/07/28 00:39:52;;;;;;;11.10;8.73;;;;;;;18.04;100.00;95656.31;1022908;28;20571;-66
2021/07/28 00:40:22;;;;;;;10.50;7.95;;;;;;;18.12;100.00;95668.81;1021028;28;20497;-65
2021/07/28 00:40:53;;;;;;;10.82;8.90;;;;;;;18.12;100.00;95668.81;1018704;28;20378;-65
2021/07/28 00:41:23;;;;;;;11.38;7.75;;;;;;;18.07;100.00;95661.00;1026591;28;20065;-66
2021/07/28 00:41:54;;;;;;;11.32;9.23;;;;;;;18.11;100.00;95667.25;1026251;28;20417;-65
2021/07/28 00:42:24;;;;;;;14.93;9.30;;;;;;;18.07;100.00;95660.22;1030416;28;20105;-66
2021/07/28 00:43:11;;;;;;;10.77;8.90;;;;;;;18.12;100.00;95668.81;1030734;28;20038;-63
2021/07/28 00:43:41;;;;;;;10.65;8.32;;;;;;;18.12;100.00;95662.72;1021903;28;20535;-66
2021/07/28 00:44:12;;;;;;;11.35;8.50;;;;;;;18.11;100.00;95661.19;1022420;29;20043;-66
2021/07/28 00:44:44;;;;;;;14.50;8.73;;;;;;;18.05;100.00;95646.47;1020995;29;20027;-66
2021/07/28 00:45:14;;;;;;;10.25;8.82;;;;;;;18.09;100.00;95658.81;1019191;28;20118;-66
2021/07/28 00:45:45;;;;;;;11.98;8.63;;;;;;;18.09;100.00;95661.47;1029835;28;20092;-66
2021/07/28 00:46:15;;;;;;;14.48;9.48;;;;;;;18.08;100.00;95659.13;1022791;28;20437;-65
2021/07/28 00:46:45;;;;;;;13.02;9.10;;;;;;;18.08;100.00;95657.25;1022721;29;20480;-65
2021/07/28 00:47:16;;;;;;;12.60;9.02;;;;;;;18.07;100.00;95661.00;1023883;28;20530;-65
2021/07/28 00:47:48;;;;;;;12.55;9.23;;;;;;;18.05;100.00;95657.88;1026808;28;20404;-65
2021/07/28 00:48:19;;;;;;;13.45;9.63;;;;;;;18.07;100.00;95666.31;1031016;28;20034;-65
2021/07/28 00:48:49;;;;;;;11.07;8.82;;;;;;;18.05;100.00;95663.19;1029984;28;20034;-64
2021/07/28 00:49:20;;;;;;;11.85;9.27;;;;;;;18.06;100.00;95664.75;1026958;28;20042;-62
2021/07/28 00:49:50;;;;;;;13.35;9.55;;;;;;;18.00;100.00;95654.59;1026910;28;20041;-65
2021/07/28 00:50:21;;;;;;;13.63;9.82;;;;;;;18.05;100.00;95663.19;1030775;28;20034;-66
2021/07/28 00:50:51;;;;;;;12.32;8.85;;;;;;;18.03;100.00;95662.72;1030245;28;20053;-65
2021/07/28 00:51:22;;;;;;;12.88;9.88;;;;;;;18.05;100.00;95667.72;1026799;28;20082;-65
2021/07/28 00:51:53;;;;;;;14.82;10.38;;;;;;;17.97;100.00;95649.91;1026109;28;20022;-64
2021/07/28 00:52:23;;;;;;;12.65;9.90;;;;;;;18.03;100.00;95660.06;1024138;28;20043;-65
2021/07/28 00:52:54;;;;;;;13.88;9.90;;;;;;;18.03;100.00;95665.38;1026635;28;20090;-65
2021/07/28 00:53:25;;;;;;;11.90;9.82;;;;;;;18.01;100.00;95661.47;1023008;28;20184;-66
2021/07/28 00:53:56;;;;;;;12.48;9.25;;;;;;;18.03;100.00;95665.38;1022828;28;20167;-66
2021/07/28 00:54:26;;;;;;;12.85;10.27;;;;;;;18.04;100.00;95663.50;1026752;28;20029;-66
2021/07/28 00:54:57;;;;;;;10.55;9.18;;;;;;;18.03;100.00;95662.72;1022864;28;20027;-65
2021/07/28 00:55:29;;;;;;;10.43;8.52;;;;;;;18.02;100.00;95661.16;1026751;28;20085;-65
2021/07/28 00:56:00;;;;;;;15.93;9.85;;;;;;;18.03;100.00;95667.25;1025812;28;20035;-66
2021/07/28 00:56:31;;;;;;;15.02;9.57;;;;;;;18.00;100.00;95659.91;1027129;28;20018;-65
2021/07/28 00:57:01;;;;;;;13.50;9.25;;;;;;;18.04;100.00;95671.44;1022758;29;20066;-66
2021/07/28 00:57:32;;;;;;;15.05;10.45;;;;;;;17.99;100.00;95658.34;1018646;29;20545;-65
2021/07/28 00:58:02;;;;;;;12.82;9.90;;;;;;;18.01;100.00;95662.25;1018563;29;20028;-63
2021/07/28 00:58:33;;;;;;;14.25;11.40;;;;;;;17.97;100.00;95660.53;1022879;28;20039;-65
2021/07/28 00:59:03;;;;;;;13.98;10.50;;;;;;;18.01;100.00;95664.91;1022515;28;20142;-65
2021/07/28 00:59:34;;;;;;;15.05;10.30;;;;;;;17.99;100.00;95663.66;1022639;28;20023;-65
2021/07/28 01:00:04;;;;;;;14.07;10.60;;;;;;;17.96;100.00;95659.75;1018540;29;20074;-63
2021/07/28 01:00:35;;;;;;;16.30;10.23;;;;;;;17.87;100.00;95650.97;1022745;28;20012;-65
2021/07/28 01:01:05;;;;;;;13.98;9.70;;;;;;;17.95;100.00;95668.81;1022171;28;20023;-63
2021/07/28 01:01:36;;;;;;;14.10;10.27;;;;;;;17.95;100.00;95663.50;1022594;28;20019;-66
2021/07/28 01:02:06;;;;;;;13.45;10.05;;;;;;;17.93;100.00;95665.66;1018132;29;20135;-66
2021/07/28 01:02:37;;;;;;;12.10;10.35;;;;;;;17.96;100.00;95669.59;1022300;28;20413;-66
2021/07/28 01:03:08;;;;;;;13.38;10.15;;;;;;;17.93;100.00;95664.91;1026747;28;20627;-66
2021/07/28 01:03:42;;;;;;;13.05;10.45;;;;;;;17.94;100.00;95669.09;1026669;28;20556;-65
2021/07/28 01:04:13;;;;;;;14.68;10.57;;;;;;;17.94;100.00;95674.41;1030094;28;20520;-65
2021/07/28 01:04:44;;;;;;;15.60;11.35;;;;;;;17.90;100.00;95671.59;1027475;28;20027;-65
2021/07/28 01:05:14;;;;;;;18.42;11.25;;;;;;;17.86;100.00;95665.34;1027233;28;20031;-65
2021/07/28 01:05:44;;;;;;;13.85;10.65;;;;;;;17.95;100.00;95673.34;1026652;28;20045;-66
2021/07/28 01:06:15;;;;;;;12.65;10.05;;;;;;;17.93;100.00;95678.16;1017883;29;20031;-65
2021/07/28 01:06:45;;;;;;;15.05;9.52;;;;;;;17.92;100.00;95668.66;1026824;28;20038;-66
2021/07/28 01:07:16;;;;;;;13.60;10.20;;;;;;;17.95;100.00;95674.13;1026532;28;20030;-66
2021/07/28 01:07:46;;;;;;;16.25;11.15;;;;;;;17.95;100.00;95674.13;1022051;28;20020;-66
2021/07/28 01:08:17;;;;;;;13.68;11.20;;;;;;;17.94;100.00;95682.38;1030316;28;20484;-65
2021/07/28 01:08:47;;;;;;;13.48;10.57;;;;;;;17.85;100.00;95669.09;1026666;28;20019;-66
2021/07/28 01:09:18;;;;;;;18.55;9.98;;;;;;;17.95;100.00;95683.97;1030539;28;20057;-65
2021/07/28 01:09:48;;;;;;;13.70;10.23;;;;;;;17.92;100.00;95677.38;1018187;28;20027;-63
2021/07/28 01:10:19;;;;;;;14.40;10.60;;;;;;;17.93;100.00;95681.59;1018659;29;20127;-66
2021/07/28 01:10:49;;;;;;;11.73;9.60;;;;;;;17.94;100.00;95677.88;1022836;28;20023;-65
2021/07/28 01:11:24;;;;;;;14.90;10.27;;;;;;;17.84;100.00;95665.69;1026006;28;20030;-65
2021/07/28 01:11:57;;;;;;;16.92;10.40;;;;;;;17.92;100.00;95682.69;1033994;28;20451;-64
2021/07/28 01:12:33;;;;;;;16.48;11.80;;;;;;;17.92;100.00;95680.03;1034673;28;20558;-65
2021/07/28 01:13:06;;;;;;;17.58;10.85;;;;;;;17.86;100.00;95668.00;1036090;28;20029;-65
2021/07/28 01:13:37;;;;;;;20.42;11.77;;;;;;;17.90;100.00;95677.69;1026485;28;20090;-65
2021/07/28 01:14:07;;;;;;;16.83;11.05;;;;;;;17.90;100.00;95674.25;1018610;29;20111;-65
2021/07/28 01:14:39;;;;;;;19.30;11.40;;;;;;;17.91;100.00;95678.50;1018321;29;20073;-65
2021/07/28 01:15:12;;;;;;;16.52;12.25;;;;;;;17.89;100.00;95676.13;1015016;29;20044;-66
2021/07/28 01:15:43;;;;;;;17.67;12.38;;;;;;;17.92;100.00;95672.09;1018464;29;20036;-65
2021/07/28 01:16:15;;;;;;;19.30;12.68;;;;;;;17.91;100.00;95675.84;1017325;29;20035;-66
2021/07/28 01:16:46;;;;;;;15.65;12.63;;;;;;;17.91;100.00;95678.50;1018643;29;20192;-66
2021/07/28 01:17:16;;;;;;;19.27;11.93;;;;;;;17.84;100.00;95670.19;1023264;28;20031;-65
2021/07/28 01:17:47;;;;;;;16.58;12.18;;;;;;;17.90;100.00;95685.66;1023208;28;20027;-64
2021/07/28 01:18:17;;;;;;;17.42;12.90;;;;;;;17.88;100.00;95690.50;1026427;28;20050;-64
2021/07/28 01:18:48;;;;;;;20.17;13.10;;;;;;;17.86;100.00;95681.28;1022575;29;20054;-65
2021/07/28 01:19:24;;;;;;;16.35;11.57;;;;;;;17.91;100.00;95691.78;1022253;28;20035;-63
2021/07/28 01:19:57;;;;;;;19.52;12.07;;;;;;;17.92;100.00;95690.66;1026618;28;20031;-65
2021/07/28 01:20:32;;;;;;;19.30;12.32;;;;;;;17.90;100.00;95692.84;1022760;29;20151;-65
2021/07/28 01:21:05;;;;;;;15.98;12.60;;;;;;;17.88;100.00;95689.72;1024428;28;20074;-66
2021/07/28 01:21:36;;;;;;;17.50;12.05;;;;;;;17.89;100.00;95693.94;1022544;28;20509;-65
2021/07/28 01:22:06;;;;;;;21.48;12.82;;;;;;;17.89;100.00;95693.94;1017939;28;20076;-65
2021/07/28 01:22:36;;;;;;;15.77;13.10;;;;;;;17.91;100.00;95697.06;1019474;28;20470;-66
2021/07/28 01:23:13;;;;;;;15.23;12.82;;;;;;;17.89;100.00;95696.59;1022554;28;21807;-66
2021/07/28 01:23:43;;;;;;;17.60;12.88;;;;;;;17.88;100.00;95693.16;1031572;28;20030;-66
2021/07/28 01:24:14;;;;;;;22.90;14.10;;;;;;;17.88;100.00;95695.81;1033997;28;20527;-65
2021/07/28 01:24:44;;;;;;;18.63;12.73;;;;;;;17.88;100.00;95690.50;1026440;28;20018;-65
2021/07/28 01:25:15;;;;;;;18.15;13.32;;;;;;;17.88;100.00;95690.50;1026540;28;20500;-65
2021/07/28 01:25:45;;;;;;;16.55;12.40;;;;;;;17.90;100.00;95698.94;1026606;28;20085;-63
2021/07/28 01:26:15;;;;;;;19.00;13.15;;;;;;;17.90;100.00;95692.84;1025581;28;20103;-66
2021/07/28 01:26:46;;;;;;;16.02;12.40;;;;;;;17.88;100.00;95698.47;1022657;29;20027;-66
2021/07/28 01:27:16;;;;;;;17.55;12.77;;;;;;;17.87;100.00;95698.75;1018648;28;20020;-65
2021/07/28 01:27:47;;;;;;;18.25;13.30;;;;;;;17.86;100.00;95697.22;1022390;29;20030;-65
2021/07/28 01:28:27;;;;;;;16.25;12.32;;;;;;;17.86;100.00;95692.69;1015271;29;20020;-66
2021/07/28 01:28:57;;;;;;;14.52;11.82;;;;;;;17.86;100.00;95697.97;1014608;29;20134;-62
2021/07/28 01:29:27;;;;;;;23.15;12.52;;;;;;;17.86;100.00;95697.22;1018252;28;20554;-65
2021/07/28 01:29:58;;;;;;;19.10;11.85;;;;;;;17.86;100.00;95697.97;1030307;28;20550;-65
2021/07/28 01:30:29;;;;;;;17.58;12.80;;;;;;;17.82;100.00;95686.44;1030609;28;20069;-63
2021/07/28 01:31:03;;;;;;;19.77;13.20;;;;;;;17.87;100.00;95688.94;1026596;28;20122;-65
2021/07/28 01:31:41;;;;;;;19.38;12.52;;;;;;;17.85;100.00;95691.13;1030775;28;20019;-65
2021/07/28 01:32:13;;;;;;;20.23;12.27;;;;;;;17.85;100.00;95685.81;1034530;28;20025;-63
2021/07/28 01:32:45;;;;;;;14.93;11.63;;;;;;;17.80;100.00;95683.28;1028942;28;20022;-65
2021/07/28 01:33:16;;;;;;;17.63;10.35;;;;;;;17.84;100.00;95688.75;1019439;29;20529;-64
2021/07/28 01:33:47;;;;;;;17.90;11.43;;;;;;;17.84;100.00;95686.09;1023311;28;20023;-65
2021/07/28 01:34:17;;;;;;;16.75;13.07;;;;;;;17.78;100.00;95684.72;1022962;28;20544;-64
2021/07/28 01:34:47;;;;;;;21.55;12.52;;;;;;;17.78;100.00;95679.41;1014904;29;20016;-65
2021/07/28 01:35:18;;;;;;;16.75;12.27;;;;;;;17.83;100.00;95687.22;1017905;29;20032;-66
2021/07/28 01:35:48;;;;;;;19.05;12.70;;;;;;;17.83;100.00;95687.22;1018660;29;20031;-62
2021/07/28 01:36:20;;;;;;;20.75;11.57;;;;;;;17.79;100.00;95683.63;1018785;28;20035;-65
2021/07/28 01:36:50;;;;;;;17.30;12.90;;;;;;;17.81;100.00;95695.50;1018283;29;20035;-65
2021/07/28 01:37:23;;;;;;;20.15;14.65;;;;;;;17.80;100.00;95682.50;1018535;29;20501;-66
2021/07/28 01:37:54;;;;;;;18.75;13.80;;;;;;;17.77;100.00;95683.13;1026501;28;20761;-65
2021/07/28 01:38:27;;;;;;;15.05;11.52;;;;;;;17.75;100.00;95686.06;1024786;28;20031;-66
2021/07/28 01:38:58;;;;;;;19.60;12.63;;;;;;;17.80;100.00;95693.91;1014777;29;20024;-65
2021/07/28 01:39:28;;;;;;;17.20;13.20;;;;;;;17.72;100.00;95680.59;1014947;29;20032;-65
2021/07/28 01:39:59;;;;;;;14.88;12.02;;;;;;;17.79;100.00;95686.28;1021872;29;20031;-65
2021/07/28 01:40:29;;;;;;;15.30;10.85;;;;;;;17.78;100.00;95698.00;1018920;29;20114;-65
2021/07/28 01:41:03;;;;;;;17.40;12.68;;;;;;;17.79;100.00;95687.03;1022667;28;20512;-66
2021/07/28 01:41:33;;;;;;;15.65;11.30;;;;;;;17.77;100.00;95683.13;1023424;28;20019;-65
2021/07/28 01:42:04;;;;;;;19.95;11.85;;;;;;;17.74;100.00;95678.41;1022190;28;20027;-65
2021/07/28 01:42:44;;;;;;;16.88;12.82;;;;;;;17.80;100.00;95687.81;1022512;29;20525;-65
2021/07/28 01:43:15;;;;;;;15.30;11.77;;;;;;;17.71;100.00;95684.38;1022994;28;20098;-65
2021/07/28 01:43:45;;;;;;;18.35;12.00;;;;;;;17.72;100.00;95689.34;1018309;28;20755;-63
2021/07/28 01:44:15;;;;;;;12.57;9.77;;;;;;;17.73;100.00;95690.91;1021296;28;20489;-65
2021/07/28 01:44:46;;;;;;;12.15;9.68;;;;;;;17.75;100.00;95688.72;1022236;28;20027;-64
2021/07/28 01:45:17;;;;;;;13.35;9.80;;;;;;;17.74;100.00;95684.53;1025947;28;20062;-65
2021/07/28 01:45:48;;;;;;;12.15;9.55;;;;;;;17.72;100.00;95685.91;1030280;28;20027;-65
2021/07/28 01:46:18;;;;;;;14.00;10.35;;;;;;;17.69;100.00;95679.34;1030575;28;20034;-65
2021/07/28 01:46:49;;;;;;;13.43;11.13;;;;;;;17.73;100.00;95696.22;1034050;28;20030;-63
2021/07/28 01:47:19;;;;;;;13.43;9.48;;;;;;;17.70;100.00;95694.16;1030386;28;20037;-65
2021/07/28 01:47:50;;;;;;;13.82;9.70;;;;;;;17.71;100.00;95694.97;1030256;28;20069;-64
2021/07/28 01:48:20;;;;;;;11.20;8.35;;;;;;;17.70;100.00;95688.09;1026409;28;20035;-64
2021/07/28 01:48:51;;;;;;;9.32;7.85;;;;;;;17.67;100.00;95692.94;1029799;28;20034;-65
2021/07/28 01:49:21;;;;;;;14.07;9.00;;;;;;;17.67;100.00;95690.28;1026318;28;20030;-65
2021/07/28 01:49:52;;;;;;;10.93;8.63;;;;;;;17.66;100.00;95688.69;1026211;28;20052;-65
2021/07/28 01:50:22;;;;;;;10.13;8.15;;;;;;;17.64;100.00;95684.81;1026132;28;20071;-64
2021/07/28 01:50:54;;;;;;;11.23;8.55;;;;;;;17.58;100.00;95675.44;1022207;28;20031;-65
2021/07/28 01:51:24;;;;;;;14.25;8.98;;;;;;;17.65;100.00;95692.44;1030301;28;20667;-63
2021/07/28 01:51:55;;;;;;;10.45;8.60;;;;;;;17.65;100.00;95684.50;1023842;28;20035;-64
2021/07/28 01:52:25;;;;;;;13.88;8.85;;;;;;;17.59;100.00;95679.63;1030290;28;20105;-65
2021/07/28 01:53:00;;;;;;;11.65;8.65;;;;;;;17.65;100.00;95689.03;1026177;28;20034;-65
2021/07/28 01:53:30;;;;;;;11.68;8.88;;;;;;;17.65;100.00;95692.44;1022771;28;20026;-62
2021/07/28 01:54:01;;;;;;;12.75;8.77;;;;;;;17.66;100.00;95688.69;1015906;29;20032;-65
2021/07/28 01:54:31;;;;;;;12.40;9.20;;;;;;;17.65;100.00;95686.38;1022937;28;20608;-66
2021/07/28 01:55:02;;;;;;;12.80;9.25;;;;;;;17.58;100.00;95681.50;1026500;28;20496;-66
2021/07/28 01:55:33;;;;;;;10.18;8.10;;;;;;;17.61;100.00;95686.19;1022119;28;20050;-65
2021/07/28 01:56:07;;;;;;;10.30;9.07;;;;;;;17.60;100.00;95681.97;1026547;28;20038;-66
2021/07/28 01:56:42;;;;;;;13.98;9.35;;;;;;;17.60;100.00;95684.63;1026982;28;20459;-65
2021/07/28 01:57:13;;;;;;;10.93;8.57;;;;;;;17.57;100.00;95681.81;1027000;28;20114;-65
2021/07/28 01:57:43;;;;;;;13.82;8.80;;;;;;;17.59;100.00;95685.72;1029702;28;20485;-66
2021/07/28 01:58:14;;;;;;;13.65;8.73;;;;;;;17.52;100.00;95681.97;1034776;28;20520;-66
2021/07/28 01:58:53;;;;;;;11.23;8.52;;;;;;;17.58;100.00;95692.13;1026921;28;20037;-65
2021/07/28 01:59:25;;;;;;;15.45;10.05;;;;;;;17.55;100.00;95686.66;1020309;29;20062;-66
2021/07/28 02:00:00;;;;;;;10.95;9.23;;;;;;;17.55;100.00;95689.31;1022316;29;20053;-63
2021/07/28 02:00:30;;;;;;;11.60;9.43;;;;;;;17.48;100.00;95673.84;1024787;28;20039;-65
2021/07/28 02:01:01;;;;;;;16.02;9.10;;;;;;;17.54;100.00;95685.88;1020776;29;20057;-63
2021/07/28 02:01:31;;;;;;;11.63;9.45;;;;;;;17.58;100.00;95691.34;1024016;28;20039;-66
2021/07/28 02:02:02;;;;;;;12.73;9.73;;;;;;;17.58;100.00;95691.34;1030254;28;20042;-65
2021/07/28 02:02:34;;;;;;;12.65;9.60;;;;;;;17.58;100.00;95691.34;1026517;28;20058;-65
2021/07/28 02:03:04;;;;;;;13.25;10.18;;;;;;;17.55;100.00;95687.44;1027483;28;20494;-66
2021/07/28 02:03:35;;;;;;;11.93;9.48;;;;;;;17.55;100.00;95692.75;1027329;28;20034;-66
2021/07/28 02:04:05;;;;;;;13.25;9.48;;;;;;;17.55;100.00;95691.97;1026849;28;20031;-66
2021/07/28 02:04:36;;;;;;;12.93;9.25;;;;;;;17.56;100.00;95691.63;1030909;28;20026;-66
2021/07/28 02:05:07;;;;;;;12.07;10.23;;;;;;;17.56;100.00;95694.28;1023283;28;20031;-66
2021/07/28 02:05:41;;;;;;;13.10;10.15;;;;;;;17.57;100.00;95689.75;1027031;28;20038;-66
2021/07/28 02:06:11;;;;;;;14.32;10.57;;;;;;;17.58;100.00;95692.13;1027164;28;20023;-65
2021/07/28 02:06:42;;;;;;;16.30;11.10;;;;;;;17.57;100.00;95689.75;1027644;28;20035;-66
2021/07/28 02:07:12;;;;;;;15.80;11.15;;;;;;;17.54;100.00;95685.88;1031138;28;20034;-65
2021/07/28 02:07:43;;;;;;;17.20;11.85;;;;;;;17.55;100.00;95687.44;1026724;28;20035;-65
2021/07/28 02:08:15;;;;;;;12.70;10.60;;;;;;;17.54;100.00;95685.88;1031221;28;20037;-66
2021/07/28 02:08:47;;;;;;;15.45;12.57;;;;;;;17.50;100.00;95682.25;1035130;28;20084;-66
2021/07/28 02:09:17;;;;;;;16.67;12.52;;;;;;;17.55;100.00;95690.09;1023358;28;20516;-65
2021/07/28 02:09:48;;;;;;;18.55;12.20;;;;;;;17.51;100.00;95681.19;1027191;28;20034;-65
2021/07/28 02:10:18;;;;;;;16.65;12.55;;;;;;;17.52;100.00;95676.66;1027239;28;20037;-66
2021/07/28 02:10:49;;;;;;;21.60;11.98;;;;;;;17.56;100.00;95688.97;1023100;28;20027;-65
2021/07/28 02:11:22;;;;;;;15.82;12.10;;;;;;;17.56;100.00;95688.22;1031202;28;20026;-65
2021/07/28 02:11:53;;;;;;;14.10;11.02;;;;;;;17.54;100.00;95683.22;1030568;28;20048;-64
2021/07/28 02:12:23;;;;;;;17.38;11.45;;;;;;;17.53;100.00;95689.59;1019554;29;20156;-66
2021/07/28 02:12:54;;;;;;;15.60;12.00;;;;;;;17.57;100.00;95685.25;1022830;29;20035;-65
2021/07/28 02:13:24;;;;;;;19.40;12.27;;;;;;;17.58;100.00;95686.03;1019217;29;20028;-65
2021/07/28 02:13:55;;;;;;;16.98;12.93;;;;;;;17.53;100.00;95675.56;1019491;28;20028;-65
2021/07/28 02:14:25;;;;;;;17.20;12.23;;;;;;;17.58;100.00;95678.84;1027035;28;20444;-66
2021/07/28 02:14:56;;;;;;;17.73;12.25;;;;;;;17.60;100.00;95683.84;1027060;28;20094;-62
2021/07/28 02:15:26;;;;;;;13.60;10.48;;;;;;;17.58;100.00;95684.16;1031237;28;20041;-65
2021/07/28 02:15:57;;;;;;;16.00;11.73;;;;;;;17.59;100.00;95684.94;1028200;28;20022;-65
2021/07/28 02:16:28;;;;;;;14.90;11.68;;;;;;;17.56;100.00;95681.03;1023279;28;20027;-65
2021/07/28 02:16:58;;;;;;;18.13;12.40;;;;;;;17.49;100.00;95667.44;1026949;28;20026;-65
2021/07/28 02:17:29;;;;;;;15.30;11.05;;;;;;;17.57;100.00;95685.25;1019030;29;20087;-66
2021/07/28 02:17:59;;;;;;;16.83;11.18;;;;;;;17.50;100.00;95671.63;1023365;28;20034;-65
2021/07/28 02:18:29;;;;;;;12.85;9.45;;;;;;;17.51;100.00;95681.19;1027002;28;20059;-65
2021/07/28 02:19:00;;;;;;;13.45;10.52;;;;;;;17.47;100.00;95677.59;1023141;28;20031;-65
2021/07/28 02:19:30;;;;;;;16.20;12.77;;;;;;;17.54;100.00;95687.72;1026989;28;20038;-65
2021/07/28 02:20:01;;;;;;;14.85;10.98;;;;;;;17.47;100.00;95668.81;1027207;28;20037;-66
2021/07/28 02:20:32;;;;;;;13.57;11.25;;;;;;;17.45;100.00;95669.16;1023176;28;20023;-65
2021/07/28 02:21:04;;;;;;;14.90;11.43;;;;;;;17.43;100.00;95669.44;1020128;29;20062;-66
2021/07/28 02:21:34;;;;;;;17.10;10.95;;;;;;;17.42;100.00;95672.41;1019205;29;20042;-66
2021/07/28 02:22:05;;;;;;;19.30;11.30;;;;;;;17.43;100.00;95674.75;1014655;29;20032;-66
2021/07/28 02:22:35;;;;;;;14.25;10.05;;;;;;;17.40;100.00;95661.31;1022955;28;20027;-66
2021/07/28 02:23:06;;;;;;;15.10;10.18;;;;;;;17.45;100.00;95671.78;1021641;29;20038;-66
2021/07/28 02:23:38;;;;;;;16.33;10.95;;;;;;;17.48;100.00;95679.16;1015790;29;20024;-66
2021/07/28 02:24:08;;;;;;;14.02;10.40;;;;;;;17.46;100.00;95676.00;1023301;28;20521;-66
2021/07/28 02:24:39;;;;;;;12.23;10.52;;;;;;;17.47;100.00;95679.44;1023014;28;20019;-67
2021/07/28 02:25:10;;;;;;;15.57;10.65;;;;;;;17.39;100.00;95667.72;1027222;28;20050;-65
2021/07/28 02:25:41;;;;;;;13.60;10.88;;;;;;;17.47;100.00;95680.25;1022810;28;20031;-65